createdAt,value
2018-07-14T00:01:14.639Z,74.22
2018-07-14T00:03:42.717Z,74.46
2018-07-14T00:06:10.713Z,73.55
2018-07-14T00:08:38.700Z,74.12
2018-07-14T00:11:06.757Z,73.96
2018-07-14T00:13:34.937Z,73.48
2018-07-14T00:16:03.018Z,74.11
2018-07-14T00:18:31.038Z,74.15
2018-07-14T00:20:59.073Z,73.89
2018-07-14T00:23:27.109Z,73.30
2018-07-14T00:26:02.366Z,72.96
2018-07-14T00:28:31.764Z,73.37
2018-07-14T00:30:59.949Z,73.20
2018-07-14T00:33:28.356Z,73.29
2018-07-14T00:35:56.590Z,73.47
2018-07-14T00:38:24.837Z,74.29
2018-07-14T00:40:52.944Z,74.21
2018-07-14T00:43:20.982Z,73.18
2018-07-14T00:45:48.980Z,73.33
2018-07-14T00:48:17.048Z,74.18
2018-07-14T00:50:45.062Z,73.76
2018-07-14T00:53:13.072Z,73.13
2018-07-14T00:55:41.062Z,72.56
2018-07-14T00:58:09.085Z,73.71
2018-07-14T01:00:37.113Z,72.74
2018-07-14T01:03:05.150Z,73.59
2018-07-14T01:05:33.213Z,73.53
2018-07-14T01:08:01.265Z,74.06
2018-07-14T01:10:29.441Z,74.64
2018-07-14T01:12:57.529Z,73.80
2018-07-14T01:15:25.537Z,74.53
2018-07-14T01:17:53.662Z,74.17
2018-07-14T01:20:21.553Z,74.51
2018-07-14T01:22:49.616Z,74.53
2018-07-14T01:25:17.597Z,75.12
2018-07-14T01:27:45.595Z,75.31
2018-07-14T01:30:13.609Z,75.18
2018-07-14T01:32:41.732Z,75.68
2018-07-14T01:35:09.733Z,75.68
2018-07-14T01:37:37.776Z,75.85
2018-07-14T01:40:05.940Z,75.63
2018-07-14T01:42:34.035Z,75.78
2018-07-14T01:45:02.030Z,75.63
2018-07-14T01:47:30.070Z,75.45
2018-07-14T01:49:58.861Z,74.17
2018-07-14T01:52:26.881Z,74.83
2018-07-14T01:54:55.043Z,74.65
2018-07-14T01:57:23.041Z,75.34
2018-07-14T01:59:51.033Z,75.65
2018-07-14T02:02:19.549Z,75.84
2018-07-14T02:04:47.553Z,75.95
2018-07-14T02:07:15.634Z,75.82
2018-07-14T02:09:43.705Z,76.08
2018-07-14T02:12:11.729Z,77.40
2018-07-14T02:14:39.748Z,77.29
2018-07-14T02:17:08.129Z,77.23
2018-07-14T02:19:36.147Z,77.36
2018-07-14T02:22:04.155Z,78.01
2018-07-14T02:24:32.205Z,78.80
2018-07-14T02:27:00.233Z,79.54
2018-07-14T02:29:28.244Z,79.52
2018-07-14T02:31:56.245Z,79.11
2018-07-14T02:36:58.610Z,78.84
2018-07-14T02:39:26.622Z,80.15
2018-07-14T02:41:54.620Z,79.51
2018-07-14T02:44:22.621Z,80.03
2018-07-14T02:46:50.648Z,78.77
2018-07-14T02:49:18.743Z,78.30
2018-07-14T02:51:47.745Z,77.60
2018-07-14T02:54:15.753Z,78.44
2018-07-14T02:56:43.757Z,78.12
2018-07-14T02:59:11.759Z,77.40
2018-07-14T03:01:39.821Z,77.29
2018-07-14T03:04:07.813Z,77.13
2018-07-14T03:06:35.859Z,78.74
2018-07-14T03:09:04.829Z,79.99
2018-07-14T03:11:32.814Z,79.54
2018-07-14T03:14:00.817Z,78.89
2018-07-14T03:16:28.828Z,79.47
2018-07-14T03:18:56.840Z,79.58
2018-07-14T03:21:24.877Z,79.18
2018-07-14T03:23:52.909Z,78.83
2018-07-14T03:26:20.932Z,79.30
2018-07-14T03:28:48.945Z,80.48
2018-07-14T03:31:17.506Z,80.11
2018-07-14T03:33:45.512Z,79.31
2018-07-14T03:36:13.504Z,78.08
2018-07-14T03:38:41.533Z,78.57
2018-07-14T03:41:09.676Z,77.82
2018-07-14T03:43:37.681Z,77.93
2018-07-14T03:46:06.013Z,78.33
2018-07-14T03:48:34.022Z,78.54
2018-07-14T03:51:02.083Z,77.99
2018-07-14T03:53:31.273Z,78.56
2018-07-14T03:55:59.300Z,78.97
2018-07-14T03:58:28.301Z,78.14
2018-07-14T04:00:56.296Z,78.54
2018-07-14T04:03:24.388Z,77.92
2018-07-14T04:05:53.214Z,77.66
2018-07-14T04:08:21.290Z,77.08
2018-07-14T04:10:49.364Z,77.71
2018-07-14T04:13:17.344Z,77.37
2018-07-14T04:15:45.537Z,77.36
2018-07-14T04:18:14.430Z,76.10
2018-07-14T04:20:42.529Z,76.63
2018-07-14T04:23:10.572Z,76.03
2018-07-14T04:25:38.721Z,75.77
2018-07-14T04:28:07.264Z,75.91
2018-07-14T04:30:35.522Z,75.96
2018-07-14T04:33:03.504Z,76.23
2018-07-14T04:35:31.562Z,75.99
2018-07-14T04:37:59.561Z,75.96
2018-07-14T04:40:27.581Z,75.90
2018-07-14T04:42:56.175Z,76.26
2018-07-14T04:45:24.368Z,75.91
2018-07-14T04:47:53.220Z,75.00
2018-07-14T04:50:21.220Z,74.80
2018-07-14T04:52:49.251Z,75.10
2018-07-14T04:55:17.269Z,74.31
2018-07-14T04:57:45.256Z,74.53
2018-07-14T05:00:13.264Z,74.76
2018-07-14T05:02:41.276Z,74.33
2018-07-14T05:05:09.284Z,74.55
2018-07-14T05:07:37.397Z,74.78
2018-07-14T05:10:05.428Z,75.02
2018-07-14T05:12:33.429Z,73.37
2018-07-14T05:15:01.429Z,73.58
2018-07-14T05:17:29.423Z,73.53
2018-07-14T05:19:57.520Z,74.04
2018-07-14T05:22:25.514Z,72.89
2018-07-14T05:24:53.526Z,72.68
2018-07-14T05:27:21.512Z,72.92
2018-07-14T05:29:49.671Z,71.88
2018-07-14T05:32:17.657Z,72.18
2018-07-14T05:34:45.655Z,72.31
2018-07-14T05:37:13.649Z,72.07
2018-07-14T05:39:41.658Z,71.23
2018-07-14T05:42:09.646Z,72.37
2018-07-14T05:44:37.636Z,72.02
2018-07-14T05:47:05.650Z,71.98
2018-07-14T05:49:33.653Z,71.36
2018-07-14T05:52:01.658Z,70.65
2018-07-14T05:54:29.669Z,70.67
2018-07-14T05:56:57.662Z,70.13
2018-07-14T05:59:25.686Z,69.05
2018-07-14T06:01:53.681Z,70.41
2018-07-14T06:04:21.678Z,67.57
2018-07-14T06:06:49.664Z,68.12
2018-07-14T06:09:17.683Z,65.77
2018-07-14T06:11:45.777Z,62.29
2018-07-14T06:14:13.846Z,61.60
2018-07-14T06:16:41.800Z,59.29
2018-07-14T06:19:09.800Z,58.58
2018-07-14T06:21:37.829Z,56.56
2018-07-14T06:24:05.845Z,55.11
2018-07-14T06:26:33.900Z,52.19
2018-07-14T06:29:01.922Z,51.85
2018-07-14T06:31:30.306Z,50.88
2018-07-14T06:33:58.548Z,50.79
2018-07-14T06:36:26.577Z,50.01
2018-07-14T06:38:54.588Z,51.04
2018-07-14T06:41:22.682Z,49.72
2018-07-14T06:43:50.728Z,49.66
2018-07-14T06:46:18.728Z,50.07
2018-07-14T06:48:46.717Z,49.99
2018-07-14T06:51:14.722Z,47.53
2018-07-14T06:53:42.732Z,45.82
2018-07-14T06:56:10.733Z,40.02
2018-07-14T06:58:38.724Z,35.70
2018-07-14T07:01:06.729Z,32.11
2018-07-14T07:03:34.737Z,29.88
2018-07-14T07:06:02.760Z,28.86
2018-07-14T07:08:31.365Z,28.51
2018-07-14T07:10:59.353Z,25.92
2018-07-14T07:13:27.351Z,25.11
2018-07-14T07:15:55.356Z,24.63
2018-07-14T07:18:24.368Z,24.42
2018-07-14T07:20:52.397Z,23.43
2018-07-14T07:23:20.384Z,23.54
2018-07-14T07:25:48.389Z,24.17
2018-07-14T07:28:16.377Z,25.91
2018-07-14T07:30:44.480Z,26.77
2018-07-14T07:33:13.170Z,29.09
2018-07-14T07:35:41.220Z,30.27
2018-07-14T07:38:09.235Z,30.35
2018-07-14T07:40:37.269Z,27.73
2018-07-14T07:43:05.281Z,29.16
2018-07-14T07:45:33.284Z,29.94
2018-07-14T07:48:01.458Z,31.13
2018-07-14T07:50:30.505Z,32.56
2018-07-14T07:52:58.515Z,34.58
2018-07-14T07:55:26.581Z,33.58
2018-07-14T07:57:54.604Z,33.47
2018-07-14T08:00:22.616Z,35.23
2018-07-14T08:02:50.719Z,35.35
2018-07-14T08:05:18.724Z,34.74
2018-07-14T08:07:46.737Z,33.84
2018-07-14T08:10:14.733Z,35.10
2018-07-14T08:12:42.807Z,32.59
2018-07-14T08:15:10.785Z,34.29
2018-07-14T08:17:38.869Z,34.41
2018-07-14T08:20:07.355Z,36.56
2018-07-14T08:22:35.481Z,36.99
2018-07-14T08:25:04.212Z,38.40
2018-07-14T08:27:33.783Z,40.07
2018-07-14T08:30:02.718Z,40.23
2018-07-14T08:32:30.893Z,39.77
2018-07-14T08:34:58.800Z,41.41
2018-07-14T08:37:26.809Z,39.89
2018-07-14T08:39:55.075Z,40.43
2018-07-14T08:42:23.160Z,39.81
2018-07-14T08:44:51.150Z,41.77
2018-07-14T08:47:19.212Z,40.40
2018-07-14T08:49:47.269Z,40.49
2018-07-14T08:52:15.264Z,38.51
2018-07-14T08:54:43.303Z,38.47
2018-07-14T08:57:11.300Z,40.97
2018-07-14T08:59:40.369Z,41.44
2018-07-14T09:02:08.383Z,41.62
2018-07-14T09:04:36.361Z,43.94
2018-07-14T09:07:04.384Z,44.99
2018-07-14T09:09:32.376Z,46.58
2018-07-14T09:12:00.397Z,45.49
2018-07-14T09:14:28.392Z,45.67
2018-07-14T09:16:57.138Z,46.07
2018-07-14T09:19:25.821Z,45.48
2018-07-14T09:21:54.586Z,46.76
2018-07-14T09:24:22.990Z,47.23
2018-07-14T09:26:51.412Z,43.91
2018-07-14T09:29:20.048Z,45.64
2018-07-14T09:31:48.800Z,43.32
2018-07-14T09:34:18.240Z,42.10
2018-07-14T09:36:46.779Z,43.73
2018-07-14T09:39:15.440Z,42.79
2018-07-14T09:41:44.173Z,41.31
2018-07-14T09:44:12.200Z,41.14
2018-07-14T09:46:40.216Z,40.38
2018-07-14T09:49:08.229Z,40.06
2018-07-14T09:51:36.249Z,41.06
2018-07-14T09:54:04.681Z,42.62
2018-07-14T09:56:32.681Z,43.67
2018-07-14T09:59:00.696Z,43.60
2018-07-14T10:01:28.686Z,46.35
2018-07-14T10:03:56.696Z,46.33
2018-07-14T10:06:24.682Z,47.31
2018-07-14T10:08:53.761Z,48.35
2018-07-14T10:11:21.772Z,46.22
2018-07-14T10:13:50.165Z,48.44
2018-07-14T10:16:18.169Z,45.39
2018-07-14T10:18:46.178Z,44.62
2018-07-14T10:21:14.246Z,43.63
2018-07-14T10:23:42.260Z,43.44
2018-07-14T10:26:10.333Z,45.32
2018-07-14T10:28:38.545Z,45.26
2018-07-14T10:31:06.779Z,43.33
2018-07-14T10:33:34.808Z,42.31
2018-07-14T10:36:02.798Z,42.66
2018-07-14T10:38:30.864Z,40.53
2018-07-14T10:40:58.828Z,41.51
2018-07-14T10:43:26.848Z,41.56
2018-07-14T10:45:54.851Z,39.30
2018-07-14T10:48:22.860Z,37.84
2018-07-14T10:50:50.889Z,39.08
2018-07-14T10:53:18.921Z,40.29
2018-07-14T10:55:46.917Z,39.37
2018-07-14T10:58:14.973Z,38.89
2018-07-14T11:00:42.944Z,38.95
2018-07-14T11:03:11.022Z,39.78
2018-07-14T11:05:39.022Z,39.90
2018-07-14T11:08:07.076Z,37.90
2018-07-14T11:10:35.072Z,36.73
2018-07-14T11:13:03.072Z,37.23
2018-07-14T11:15:32.145Z,38.84
2018-07-14T11:18:00.176Z,37.33
2018-07-14T11:20:28.156Z,36.36
2018-07-14T11:22:56.192Z,38.46
2018-07-14T11:25:24.271Z,34.38
2018-07-14T11:27:52.277Z,35.82
2018-07-14T11:30:20.357Z,36.21
2018-07-14T11:32:48.365Z,34.95
2018-07-14T11:35:16.429Z,35.91
2018-07-14T11:37:44.518Z,35.88
2018-07-14T11:40:12.489Z,38.23
2018-07-14T11:42:40.495Z,37.15
2018-07-14T11:45:08.496Z,36.45
2018-07-14T11:47:36.711Z,37.32
2018-07-14T11:50:04.816Z,35.80
2018-07-14T11:52:32.932Z,36.99
2018-07-14T11:55:00.925Z,36.87
2018-07-14T11:57:28.998Z,36.35
2018-07-14T11:59:57.013Z,34.70
2018-07-14T12:02:25.017Z,36.27
2018-07-14T12:04:53.087Z,35.14
2018-07-14T12:07:21.184Z,34.72
2018-07-14T12:09:49.140Z,36.02
2018-07-14T12:12:17.169Z,36.41
2018-07-14T12:14:45.245Z,36.63
2018-07-14T12:17:13.240Z,34.72
2018-07-14T12:19:41.665Z,35.88
2018-07-14T12:22:09.681Z,34.40
2018-07-14T12:24:37.704Z,34.32
2018-07-14T12:27:05.913Z,35.58
2018-07-14T12:29:33.935Z,37.58
2018-07-14T12:32:01.950Z,34.94
2018-07-14T12:34:29.967Z,35.32
2018-07-14T12:36:57.976Z,34.39
2018-07-14T12:39:25.989Z,36.34
2018-07-14T12:41:54.024Z,36.72
2018-07-14T12:44:22.029Z,35.44
2018-07-14T12:46:50.027Z,34.36
2018-07-14T12:49:18.057Z,34.16
2018-07-14T12:51:46.072Z,32.32
2018-07-14T12:54:14.084Z,32.71
2018-07-14T12:56:42.080Z,35.02
2018-07-14T12:59:10.088Z,32.87
2018-07-14T13:01:38.428Z,35.17
2018-07-14T13:04:06.436Z,34.65
2018-07-14T13:06:34.456Z,34.39
2018-07-14T13:09:02.450Z,34.67
2018-07-14T13:11:30.486Z,36.97
2018-07-14T13:13:58.509Z,35.71
2018-07-14T13:16:26.884Z,34.95
2018-07-14T13:18:55.073Z,36.40
2018-07-14T13:21:23.078Z,35.74
2018-07-14T13:23:51.312Z,34.33
2018-07-14T13:26:19.382Z,32.92
2018-07-14T13:28:47.793Z,33.59
2018-07-14T13:31:15.869Z,34.78
2018-07-14T13:33:44.126Z,34.20
2018-07-14T13:36:12.145Z,33.71
2018-07-14T13:38:40.173Z,35.95
2018-07-14T13:41:08.160Z,34.34
2018-07-14T13:43:36.144Z,34.48
2018-07-14T13:46:04.193Z,33.58
2018-07-14T13:48:32.361Z,33.53
2018-07-14T13:51:00.524Z,35.99
2018-07-14T13:53:28.571Z,35.01
2018-07-14T13:55:56.585Z,36.93
2018-07-14T13:58:25.676Z,34.98
2018-07-14T14:00:53.688Z,38.44
2018-07-14T14:03:21.973Z,37.52
2018-07-14T14:05:50.072Z,37.44
2018-07-14T14:08:18.269Z,39.64
2018-07-14T14:10:46.283Z,39.00
2018-07-14T14:13:14.393Z,40.32
2018-07-14T14:15:42.425Z,40.03
2018-07-14T14:18:10.465Z,40.80
2018-07-14T14:20:38.502Z,43.20
2018-07-14T14:23:06.634Z,40.74
2018-07-14T14:25:34.628Z,40.90
2018-07-14T14:28:02.666Z,40.72
2018-07-14T14:30:30.656Z,42.26
2018-07-14T14:32:58.716Z,41.68
2018-07-14T14:35:26.799Z,40.22
2018-07-14T14:37:54.793Z,40.95
2018-07-14T14:40:22.797Z,40.67
2018-07-14T14:42:50.801Z,40.65
2018-07-14T14:45:18.805Z,41.83
2018-07-14T14:47:46.898Z,40.56
2018-07-14T14:50:15.016Z,38.78
2018-07-14T14:52:42.987Z,39.36
2018-07-14T14:55:11.009Z,41.73
2018-07-14T14:57:38.997Z,39.25
2018-07-14T15:00:07.058Z,40.60
2018-07-14T15:02:35.076Z,38.76
2018-07-14T15:05:03.068Z,40.38
2018-07-14T15:07:31.379Z,39.46
2018-07-14T15:09:59.457Z,40.38
2018-07-14T15:12:27.454Z,39.51
2018-07-14T15:14:55.476Z,40.89
2018-07-14T15:17:23.732Z,40.88
2018-07-14T15:19:51.736Z,40.59
2018-07-14T15:22:19.744Z,41.53
2018-07-14T15:24:47.790Z,42.08
2018-07-14T15:27:15.800Z,42.02
2018-07-14T15:29:43.855Z,42.56
2018-07-14T15:32:11.878Z,42.84
2018-07-14T15:34:39.885Z,43.88
2018-07-14T15:37:07.896Z,44.84
2018-07-14T15:39:35.908Z,44.73
2018-07-14T15:42:03.989Z,43.64
2018-07-14T15:44:32.057Z,44.59
2018-07-14T15:47:00.110Z,43.59
2018-07-14T15:49:28.119Z,42.80
2018-07-14T15:51:56.141Z,42.04
2018-07-14T15:54:24.133Z,42.72
2018-07-14T15:56:52.260Z,41.47
2018-07-14T15:59:20.260Z,42.93
2018-07-14T16:01:48.250Z,43.90
2018-07-14T16:04:16.238Z,44.34
2018-07-14T16:06:44.240Z,44.12
2018-07-14T16:09:12.237Z,44.67
2018-07-14T16:11:40.270Z,44.75
2018-07-14T16:14:08.288Z,45.33
2018-07-14T16:16:36.319Z,45.07
2018-07-14T16:19:04.406Z,44.14
2018-07-14T16:21:32.389Z,44.78
2018-07-14T16:24:00.398Z,45.69
2018-07-14T16:26:28.390Z,45.01
2018-07-14T16:28:56.421Z,46.29
2018-07-14T16:31:24.412Z,45.84
2018-07-14T16:33:52.437Z,46.03
2018-07-14T16:36:20.497Z,47.48
2018-07-14T16:38:48.513Z,47.34
2018-07-14T16:41:16.530Z,46.94
2018-07-14T16:43:44.528Z,47.08
2018-07-14T16:46:12.557Z,47.43
2018-07-14T16:48:40.589Z,45.94
2018-07-14T16:51:08.776Z,47.00
2018-07-14T16:53:36.948Z,46.69
2018-07-14T16:56:05.024Z,45.00
2018-07-14T16:58:33.312Z,44.42
2018-07-14T17:01:01.254Z,44.53
2018-07-14T17:03:29.268Z,44.83
2018-07-14T17:05:57.292Z,44.92
2018-07-14T17:08:25.417Z,42.84
2018-07-14T17:10:53.468Z,43.58
2018-07-14T17:13:21.509Z,43.99
2018-07-14T17:15:49.781Z,44.31
2018-07-14T17:18:17.813Z,44.51
2018-07-14T17:20:45.834Z,44.90
2018-07-14T17:23:13.877Z,44.90
2018-07-14T17:25:41.872Z,45.60
2018-07-14T17:28:09.880Z,46.01
2018-07-14T17:30:37.869Z,45.91
2018-07-14T17:33:05.954Z,46.45
2018-07-14T17:35:34.609Z,46.79
2018-07-14T17:38:02.572Z,46.99
2018-07-14T17:40:30.598Z,47.49
2018-07-14T17:42:58.608Z,47.53
2018-07-14T17:45:26.689Z,48.70
2018-07-14T17:47:54.719Z,49.25
2018-07-14T17:50:22.722Z,48.25
2018-07-14T17:52:50.727Z,49.10
2018-07-14T17:55:18.718Z,49.02
2018-07-14T17:57:46.712Z,49.65
2018-07-14T18:00:14.739Z,50.21
2018-07-14T18:02:42.766Z,50.05
2018-07-14T18:05:10.777Z,49.48
2018-07-14T18:07:38.749Z,50.42
2018-07-14T18:10:06.926Z,51.15
2018-07-14T18:12:34.937Z,50.19
2018-07-14T18:15:02.973Z,50.74
2018-07-14T18:17:31.332Z,49.78
2018-07-14T18:19:59.362Z,50.01
2018-07-14T18:22:27.369Z,51.19
2018-07-14T18:24:55.360Z,50.74
2018-07-14T18:27:23.400Z,50.87
2018-07-14T18:29:51.408Z,51.16
2018-07-14T18:32:19.396Z,50.67
2018-07-14T18:34:47.406Z,50.62
2018-07-14T18:37:15.604Z,50.77
2018-07-14T18:39:43.630Z,51.27
2018-07-14T18:42:11.622Z,51.29
2018-07-14T18:44:39.637Z,51.24
2018-07-14T18:47:07.701Z,52.02
2018-07-14T18:52:26.764Z,52.17
2018-07-14T18:54:54.556Z,52.45
2018-07-14T18:57:22.546Z,53.01
2018-07-14T18:59:50.548Z,53.43
2018-07-14T19:02:18.562Z,53.35
2018-07-14T19:04:46.557Z,53.71
2018-07-14T19:07:14.557Z,53.29
2018-07-14T19:09:42.573Z,53.91
2018-07-14T19:12:10.580Z,53.16
2018-07-14T19:14:38.582Z,54.12
2018-07-14T19:17:06.653Z,53.79
2018-07-14T19:19:34.672Z,53.58
2018-07-14T19:22:02.664Z,53.73
2018-07-14T19:24:30.693Z,53.80
2018-07-14T19:26:58.686Z,53.73
2018-07-14T19:29:26.704Z,54.52
2018-07-14T19:31:54.714Z,54.96
2018-07-14T19:34:22.728Z,55.14
2018-07-14T19:36:50.815Z,54.48
2018-07-14T19:39:18.809Z,54.60
2018-07-14T19:41:46.888Z,55.17
2018-07-14T19:44:14.898Z,56.11
2018-07-14T19:46:42.952Z,56.01
2018-07-14T19:49:10.938Z,56.55
2018-07-14T19:51:38.952Z,56.14
2018-07-14T19:54:06.950Z,55.82
2018-07-14T19:56:34.957Z,55.79
2018-07-14T19:59:02.958Z,57.23
2018-07-14T20:01:30.965Z,57.25
2018-07-14T20:03:59.013Z,56.78
2018-07-14T20:06:27.016Z,56.99
2018-07-14T20:08:55.086Z,57.26
2018-07-14T20:11:23.156Z,56.80
2018-07-14T20:13:51.249Z,57.90
2018-07-14T20:16:19.325Z,57.62
2018-07-14T20:18:47.371Z,58.55
2018-07-14T20:21:15.401Z,58.21
2018-07-14T20:23:43.410Z,58.48
2018-07-14T20:26:11.437Z,58.63
2018-07-14T20:28:39.437Z,58.00
2018-07-14T20:31:07.439Z,58.93
2018-07-14T20:33:35.448Z,59.40
2018-07-14T20:36:03.514Z,59.29
2018-07-14T20:38:31.504Z,58.56
2018-07-14T20:40:59.498Z,58.97
2018-07-14T20:43:27.536Z,59.49
2018-07-14T20:45:55.542Z,60.24
2018-07-14T20:48:24.156Z,59.92
2018-07-14T20:50:52.180Z,60.88
2018-07-14T20:53:20.181Z,60.92
2018-07-14T20:55:48.852Z,60.92
2018-07-14T20:58:16.848Z,61.48
2018-07-14T21:00:44.881Z,61.19
2018-07-14T21:03:12.885Z,61.62
2018-07-14T21:05:40.873Z,62.37
2018-07-14T21:08:08.904Z,61.93
2018-07-14T21:10:36.912Z,61.98
2018-07-14T21:13:05.080Z,62.84
2018-07-14T21:15:33.116Z,62.49
2018-07-14T21:18:01.092Z,62.62
2018-07-14T21:20:29.108Z,63.24
2018-07-14T21:22:57.525Z,63.20
2018-07-14T21:25:25.768Z,64.12
2018-07-14T21:27:53.797Z,63.48
2018-07-14T21:30:21.875Z,64.13
2018-07-14T21:32:49.923Z,64.72
2018-07-14T21:35:18.057Z,64.18
2018-07-14T21:37:46.064Z,64.54
2018-07-14T21:40:14.081Z,65.11
2018-07-14T21:42:42.117Z,65.34
2018-07-14T21:45:10.105Z,65.14
2018-07-14T21:47:38.122Z,65.71
2018-07-14T21:50:06.382Z,65.62
2018-07-14T21:52:34.376Z,66.44
2018-07-14T21:55:02.394Z,66.38
2018-07-14T21:57:30.442Z,66.28
2018-07-14T21:59:58.480Z,66.97
2018-07-14T22:02:26.849Z,67.35
2018-07-14T22:04:55.396Z,67.50
2018-07-14T22:07:23.426Z,66.81
2018-07-14T22:09:51.385Z,67.74
2018-07-14T22:12:19.378Z,67.60
2018-07-14T22:14:47.425Z,66.96
2018-07-14T22:17:15.470Z,67.26
2018-07-14T22:19:43.476Z,67.28
2018-07-14T22:22:11.458Z,67.45
2018-07-14T22:24:39.478Z,67.42
2018-07-14T22:27:07.464Z,68.37
2018-07-14T22:29:35.466Z,68.54
2018-07-14T22:32:04.261Z,68.40
2018-07-14T22:34:32.241Z,68.32
2018-07-14T22:37:00.233Z,67.96
2018-07-14T22:39:28.249Z,68.95
2018-07-14T22:41:56.291Z,68.84
2018-07-14T22:44:24.284Z,68.69
2018-07-14T22:46:52.293Z,69.76
2018-07-14T22:49:20.348Z,69.34
2018-07-14T22:51:48.369Z,69.53
2018-07-14T22:54:16.406Z,68.87
2018-07-14T22:56:44.392Z,70.27
2018-07-14T22:59:12.384Z,70.15
2018-07-14T23:01:40.387Z,69.79
2018-07-14T23:04:08.440Z,70.18
2018-07-14T23:06:36.510Z,70.78
2018-07-14T23:09:06.768Z,70.34
2018-07-14T23:11:34.764Z,70.62
2018-07-14T23:14:02.757Z,70.80
2018-07-14T23:16:30.812Z,71.15
2018-07-14T23:18:58.882Z,71.35
2018-07-14T23:21:26.893Z,71.43
2018-07-14T23:23:54.909Z,71.32
2018-07-14T23:26:23.010Z,71.31
2018-07-14T23:28:51.029Z,72.19
2018-07-14T23:31:19.077Z,72.88
2018-07-14T23:33:47.129Z,72.53
2018-07-14T23:36:15.141Z,72.18
2018-07-14T23:38:43.137Z,72.17
2018-07-14T23:41:11.225Z,71.68
2018-07-14T23:43:39.241Z,72.06
2018-07-14T23:46:07.261Z,72.37
2018-07-14T23:48:35.292Z,72.12
2018-07-14T23:51:03.281Z,72.05
2018-07-14T23:53:31.293Z,71.51
2018-07-14T23:56:05.900Z,71.61
2018-07-14T23:58:33.945Z,71.80
